Weather at Jalaluddin Airport

Public forecast

Using degrees Celsius for public forecast. Weather courtesy of forecast.io.

Closest aviation weather report (METAR) to Jalaluddin Airport

Closest report is Sam Ratulangi Airport, 136.1 nm (252.1 km) ENE.

2024/06/20 19:30 (retrieved 27 minutes ago)

WAMM 201930Z VRB02KT 9999 FEW020 23/23 Q1011 NOSIG

Closest aviation forecast (TAF) to Jalaluddin Airport

Closest forecast is Sam Ratulangi Airport, 136.1 nm (252.1 km) ENE.

2024/06/20 18:56 Correction (retrieved 1 hour ago)

TAF COR WAMM 201700Z 2018/2124 VRB02KT 9999 FEW020 BECMG 2100/2102 17010KT